createdAt,value
2023-02-11T00:00:42.167Z,43.50
2023-02-11T00:03:09.746Z,43.50
2023-02-11T00:05:36.591Z,43.50
2023-02-11T00:08:03.321Z,43.50
2023-02-11T00:10:30.058Z,43.50
2023-02-11T00:12:56.800Z,43.50
2023-02-11T00:15:23.541Z,43.50
2023-02-11T00:17:50.309Z,43.50
2023-02-11T00:20:17.054Z,43.50
2023-02-11T00:22:43.780Z,43.50
2023-02-11T00:25:10.619Z,43.50
2023-02-11T00:27:38.029Z,43.60
2023-02-11T00:30:05.709Z,43.60
2023-02-11T00:32:32.514Z,43.50
2023-02-11T00:34:59.239Z,43.60
2023-02-11T00:37:26.011Z,43.50
2023-02-11T00:39:52.813Z,43.60
2023-02-11T00:42:19.737Z,43.60
2023-02-11T00:44:46.469Z,43.60
2023-02-11T00:47:16.125Z,43.60
2023-02-11T00:49:44.107Z,43.60
2023-02-11T00:52:10.922Z,43.60
2023-02-11T00:54:37.638Z,43.60
2023-02-11T00:57:04.373Z,43.60
2023-02-11T00:59:31.230Z,43.60
2023-02-11T01:01:58.003Z,43.70
2023-02-11T01:04:24.737Z,43.70
2023-02-11T01:06:52.205Z,43.60
2023-02-11T01:09:21.113Z,43.60
2023-02-11T01:11:48.045Z,43.60
2023-02-11T01:14:14.815Z,43.60
2023-02-11T01:16:41.650Z,43.70
2023-02-11T01:19:08.486Z,43.70
2023-02-11T01:21:35.408Z,43.70
2023-02-11T01:24:02.119Z,43.70
2023-02-11T01:26:28.806Z,43.70
2023-02-11T01:28:57.262Z,43.70
2023-02-11T01:31:24.036Z,43.70
2023-02-11T01:33:50.904Z,43.70
2023-02-11T01:36:17.609Z,43.70
2023-02-11T01:38:45.498Z,43.70
2023-02-11T01:41:14.766Z,43.70
2023-02-11T01:43:42.750Z,43.70
2023-02-11T01:46:30.058Z,43.70
2023-02-11T01:48:59.910Z,43.80
2023-02-11T01:51:34.250Z,43.90
2023-02-11T01:54:22.399Z,43.90
2023-02-11T01:57:11.397Z,43.80
2023-02-11T01:59:43.927Z,43.80
2023-02-11T02:02:12.950Z,43.80
2023-02-11T02:04:46.838Z,43.80
2023-02-11T02:07:33.212Z,43.80
2023-02-11T02:10:05.274Z,43.70
2023-02-11T02:12:32.076Z,43.80
2023-02-11T02:15:21.538Z,43.70
2023-02-11T02:18:07.504Z,43.70
2023-02-11T02:21:08.225Z,43.60
2023-02-11T02:24:01.785Z,43.60
2023-02-11T02:26:34.623Z,43.70
2023-02-11T02:29:16.432Z,43.80
2023-02-11T02:31:43.210Z,43.70
2023-02-11T02:34:30.665Z,43.70
2023-02-11T02:37:15.184Z,43.70
2023-02-11T02:39:42.229Z,43.60
2023-02-11T02:42:09.548Z,43.70
2023-02-11T02:44:36.288Z,43.70
2023-02-11T02:47:03.079Z,43.70
2023-02-11T02:49:29.826Z,43.70
2023-02-11T02:52:24.068Z,43.60
2023-02-11T02:55:09.033Z,43.60
2023-02-11T02:57:42.360Z,43.50
2023-02-11T03:00:18.309Z,43.60
2023-02-11T03:02:46.070Z,43.60
2023-02-11T03:05:45.317Z,43.60
2023-02-11T03:08:30.584Z,43.60
2023-02-11T03:10:58.495Z,43.50
2023-02-11T03:13:33.411Z,43.60
2023-02-11T03:16:05.194Z,43.60
2023-02-11T03:18:34.102Z,43.60
2023-02-11T03:21:01.456Z,43.60
2023-02-11T03:23:33.113Z,43.60
2023-02-11T03:26:04.582Z,43.60
2023-02-11T03:28:44.449Z,43.60
2023-02-11T03:31:30.534Z,43.60
2023-02-11T03:34:26.609Z,43.60
2023-02-11T03:37:04.251Z,43.50
2023-02-11T03:39:36.082Z,43.60
2023-02-11T03:42:04.458Z,43.70
2023-02-11T03:44:36.810Z,43.60
2023-02-11T03:47:05.483Z,43.60
2023-02-11T03:49:32.847Z,43.60
2023-02-11T03:52:01.151Z,43.60
2023-02-11T03:54:30.599Z,43.60
2023-02-11T03:56:59.630Z,43.60
2023-02-11T03:59:26.666Z,43.60
2023-02-11T04:01:53.613Z,43.60
2023-02-11T04:04:20.612Z,43.60
2023-02-11T04:06:47.298Z,43.60
2023-02-11T04:09:14.982Z,43.60
2023-02-11T04:11:41.735Z,43.60
2023-02-11T04:14:08.470Z,43.60
2023-02-11T04:16:35.228Z,43.50
2023-02-11T04:19:02.061Z,43.60
2023-02-11T04:21:29.167Z,43.50
2023-02-11T04:23:55.872Z,43.50
2023-02-11T04:26:22.594Z,43.50
2023-02-11T04:28:49.281Z,43.50
2023-02-11T04:31:16.160Z,43.50
2023-02-11T04:33:42.962Z,43.50
2023-02-11T04:36:09.676Z,43.50
2023-02-11T04:38:36.375Z,43.50
2023-02-11T04:41:03.230Z,43.50
2023-02-11T04:43:29.966Z,43.50
2023-02-11T04:45:58.707Z,43.50
2023-02-11T04:48:26.265Z,43.50
2023-02-11T04:50:52.990Z,43.50
2023-02-11T04:53:19.754Z,43.50
2023-02-11T04:55:50.135Z,43.50
2023-02-11T04:58:18.131Z,43.60
2023-02-11T05:00:44.851Z,43.50
2023-02-11T05:03:11.932Z,43.50
2023-02-11T05:05:42.666Z,43.50
2023-02-11T05:08:10.598Z,43.50
2023-02-11T05:10:37.398Z,43.60
2023-02-11T05:13:04.378Z,43.50
2023-02-11T05:15:31.139Z,43.50
2023-02-11T05:17:57.920Z,43.60
2023-02-11T05:20:24.643Z,43.50
2023-02-11T05:22:51.705Z,43.60
2023-02-11T05:25:18.585Z,43.60
2023-02-11T05:27:45.297Z,43.60
2023-02-11T05:30:12.427Z,43.60
2023-02-11T05:32:39.239Z,43.50
2023-02-11T05:35:06.239Z,43.60
2023-02-11T05:37:33.118Z,43.60
2023-02-11T05:39:59.930Z,43.60
2023-02-11T05:42:26.616Z,43.60
2023-02-11T05:44:53.317Z,43.60
2023-02-11T05:47:20.087Z,43.60
2023-02-11T05:49:47.583Z,43.60
2023-02-11T05:52:14.291Z,43.60
2023-02-11T05:54:41.145Z,43.60
2023-02-11T05:57:07.884Z,43.60
2023-02-11T05:59:34.570Z,43.60
2023-02-11T06:02:02.013Z,43.60
2023-02-11T06:04:28.771Z,43.60
2023-02-11T06:06:55.477Z,43.60
2023-02-11T06:09:22.259Z,43.60
2023-02-11T06:11:48.937Z,43.60
2023-02-11T06:14:15.628Z,43.60
2023-02-11T06:16:42.404Z,43.70
2023-02-11T06:19:09.109Z,43.70
2023-02-11T06:21:43.239Z,43.70
2023-02-11T06:24:11.063Z,43.70
2023-02-11T06:26:37.776Z,43.70
2023-02-11T06:29:04.484Z,43.60
2023-02-11T06:31:31.339Z,43.60
2023-02-11T06:33:59.275Z,43.70
2023-02-11T06:36:26.158Z,43.70
2023-02-11T06:38:53.022Z,43.70
2023-02-11T06:41:20.327Z,43.70
2023-02-11T06:43:47.787Z,43.70
2023-02-11T06:46:14.984Z,43.70
2023-02-11T06:48:44.464Z,43.70
2023-02-11T06:51:13.285Z,43.70
2023-02-11T06:53:43.312Z,43.70
2023-02-11T06:56:13.095Z,43.70
2023-02-11T06:58:40.289Z,43.70
2023-02-11T07:01:08.784Z,43.80
2023-02-11T07:03:36.583Z,43.80
2023-02-11T07:06:07.908Z,43.80
2023-02-11T07:08:36.860Z,43.80
2023-02-11T07:11:29.244Z,43.80
2023-02-11T07:14:00.816Z,43.80
2023-02-11T07:16:27.613Z,44.50
2023-02-11T07:18:54.386Z,43.80
2023-02-11T07:21:22.380Z,43.80
2023-02-11T07:23:49.173Z,43.80
2023-02-11T07:26:17.851Z,43.80
2023-02-11T07:28:45.343Z,43.80
2023-02-11T07:31:20.817Z,43.90
2023-02-11T07:33:47.748Z,43.90
2023-02-11T07:36:15.960Z,43.90
2023-02-11T07:38:43.163Z,44.00
2023-02-11T07:41:16.911Z,43.90
2023-02-11T07:43:44.195Z,43.90
2023-02-11T07:46:14.244Z,43.90
2023-02-11T07:48:40.986Z,44.00
2023-02-11T07:51:13.131Z,43.80
2023-02-11T07:53:40.348Z,43.90
2023-02-11T07:56:07.770Z,44.00
2023-02-11T07:58:34.516Z,44.90
2023-02-11T08:01:06.189Z,44.40
2023-02-11T08:03:33.927Z,44.50
2023-02-11T08:06:15.289Z,44.60
2023-02-11T08:08:42.600Z,44.80
2023-02-11T08:11:11.584Z,44.80
2023-02-11T08:13:38.615Z,44.90
2023-02-11T08:16:06.134Z,44.90
2023-02-11T08:18:33.969Z,44.90
2023-02-11T08:21:08.359Z,45.00
2023-02-11T08:23:39.784Z,45.00
2023-02-11T08:26:09.083Z,45.00
2023-02-11T08:28:37.968Z,45.00
2023-02-11T08:31:06.941Z,45.00
2023-02-11T08:33:34.454Z,45.10
2023-02-11T08:36:01.838Z,45.00
2023-02-11T08:38:28.563Z,44.90
2023-02-11T08:40:55.255Z,44.90
2023-02-11T08:43:23.241Z,44.90
2023-02-11T08:45:50.273Z,45.00
2023-02-11T08:48:17.234Z,44.90
2023-02-11T08:50:43.992Z,44.80
2023-02-11T08:53:10.681Z,44.80
2023-02-11T08:55:37.375Z,44.80
2023-02-11T08:58:04.111Z,44.70
2023-02-11T09:00:31.242Z,44.70
2023-02-11T09:02:57.993Z,44.70
2023-02-11T09:05:24.751Z,44.70
2023-02-11T09:07:51.449Z,44.60
2023-02-11T09:10:18.269Z,44.80
2023-02-11T09:12:45.010Z,44.50
2023-02-11T09:15:11.705Z,44.50
2023-02-11T09:17:38.406Z,44.50
2023-02-11T09:20:05.612Z,44.50
2023-02-11T09:22:32.321Z,44.50
2023-02-11T09:24:59.032Z,44.50
2023-02-11T09:27:25.798Z,44.40
2023-02-11T09:29:52.491Z,44.50
2023-02-11T09:32:19.198Z,44.40
2023-02-11T09:34:45.915Z,44.40
2023-02-11T09:37:12.686Z,44.40
2023-02-11T09:39:39.436Z,44.50
2023-02-11T09:42:24.251Z,45.10
2023-02-11T09:44:52.528Z,44.40
2023-02-11T09:47:28.759Z,44.50
2023-02-11T09:50:13.948Z,44.50
2023-02-11T09:52:47.757Z,44.60
2023-02-11T09:55:42.728Z,44.60
2023-02-11T09:58:19.507Z,44.60
2023-02-11T10:01:03.449Z,44.70
2023-02-11T10:03:30.204Z,44.70
2023-02-11T10:06:05.190Z,44.90
2023-02-11T10:08:50.942Z,44.90
2023-02-11T10:11:32.245Z,45.00
2023-02-11T10:14:09.306Z,45.00
2023-02-11T10:17:07.497Z,45.00
2023-02-11T10:19:45.211Z,44.90
2023-02-11T10:22:20.346Z,45.00
2023-02-11T10:24:59.787Z,45.00
2023-02-11T10:27:34.866Z,45.00
2023-02-11T10:30:16.225Z,45.10
2023-02-11T10:33:01.062Z,45.10
2023-02-11T10:35:27.866Z,45.10
2023-02-11T10:37:55.973Z,45.20
2023-02-11T10:40:28.722Z,45.20
2023-02-11T10:42:59.258Z,45.30
2023-02-11T10:45:45.130Z,45.30
2023-02-11T10:48:49.443Z,45.30
2023-02-11T10:51:18.097Z,45.20
2023-02-11T10:53:46.095Z,46.10
2023-02-11T10:56:20.769Z,45.40
2023-02-11T10:58:56.952Z,45.40
2023-02-11T11:01:37.250Z,45.40
2023-02-11T11:04:04.077Z,45.30
2023-02-11T11:06:32.216Z,45.00
2023-02-11T11:08:59.258Z,45.10
2023-02-11T11:11:27.171Z,45.20
2023-02-11T11:13:53.828Z,45.30
2023-02-11T11:16:29.171Z,45.40
2023-02-11T11:19:08.227Z,45.40
2023-02-11T11:21:40.779Z,45.50
2023-02-11T11:24:14.979Z,45.60
2023-02-11T11:26:46.748Z,45.60
2023-02-11T11:29:20.684Z,45.60
2023-02-11T11:32:01.329Z,45.70
2023-02-11T11:34:38.602Z,45.70
2023-02-11T11:37:15.982Z,45.80
2023-02-11T11:39:42.843Z,45.80
2023-02-11T11:42:29.085Z,46.00
2023-02-11T11:45:20.820Z,45.90
2023-02-11T11:47:59.752Z,46.00
2023-02-11T11:50:32.484Z,46.00
2023-02-11T11:53:27.984Z,46.10
2023-02-11T11:56:07.590Z,46.10
2023-02-11T11:58:34.570Z,46.20
2023-02-11T12:01:39.197Z,46.30
2023-02-11T12:04:32.704Z,46.20
2023-02-11T12:07:20.693Z,46.30
2023-02-11T12:10:06.010Z,46.30
2023-02-11T12:12:57.276Z,46.40
2023-02-11T12:15:36.632Z,46.40
2023-02-11T12:18:19.362Z,46.40
2023-02-11T12:21:10.494Z,46.40
2023-02-11T12:23:55.384Z,46.40
2023-02-11T12:26:24.609Z,46.50
2023-02-11T12:28:53.808Z,46.50
2023-02-11T12:31:37.107Z,46.30
2023-02-11T12:34:26.199Z,46.60
2023-02-11T12:37:11.650Z,46.60
2023-02-11T12:40:10.338Z,46.60
2023-02-11T12:43:17.269Z,46.60
2023-02-11T12:46:06.141Z,46.60
2023-02-11T12:48:56.495Z,46.60
2023-02-11T12:51:32.575Z,46.60
2023-02-11T12:54:25.513Z,46.80
2023-02-11T12:57:08.470Z,46.70
2023-02-11T12:59:47.748Z,46.70
2023-02-11T13:02:29.536Z,46.70
2023-02-11T13:05:12.604Z,46.80
2023-02-11T13:07:44.708Z,46.80
2023-02-11T13:10:15.501Z,46.80
2023-02-11T13:13:04.862Z,46.90
2023-02-11T13:15:31.811Z,46.90
2023-02-11T13:18:08.028Z,46.90
2023-02-11T13:21:02.468Z,46.90
2023-02-11T13:23:49.478Z,47.00
2023-02-11T13:26:31.496Z,47.10
2023-02-11T13:29:19.507Z,47.10
2023-02-11T13:31:58.741Z,47.10
2023-02-11T13:34:40.943Z,47.10
2023-02-11T13:37:26.842Z,47.20
2023-02-11T13:39:58.611Z,47.30
2023-02-11T13:42:26.002Z,47.30
2023-02-11T13:44:52.996Z,47.30
2023-02-11T13:47:25.743Z,47.30
2023-02-11T13:49:53.421Z,47.30
2023-02-11T13:52:29.878Z,47.30
2023-02-11T13:55:03.463Z,47.30
2023-02-11T13:57:33.566Z,47.30
2023-02-11T14:00:03.764Z,47.40
2023-02-11T14:02:55.768Z,47.40
2023-02-11T14:05:51.846Z,47.40
2023-02-11T14:08:39.723Z,47.40
2023-02-11T14:11:17.211Z,47.50
2023-02-11T14:13:47.456Z,47.60
2023-02-11T14:16:36.366Z,47.60
2023-02-11T14:19:04.220Z,47.70
2023-02-11T14:21:37.047Z,47.70
2023-02-11T14:24:07.048Z,47.80
2023-02-11T14:26:53.166Z,47.80
2023-02-11T14:30:02.502Z,47.70
2023-02-11T14:32:47.656Z,47.60
2023-02-11T14:35:39.552Z,47.80
2023-02-11T14:38:19.232Z,47.80
2023-02-11T14:41:02.173Z,47.90
2023-02-11T14:43:35.430Z,47.80
2023-02-11T14:46:03.280Z,47.90
2023-02-11T14:48:38.042Z,47.80
2023-02-11T14:51:15.584Z,47.80
2023-02-11T14:53:50.276Z,47.80
2023-02-11T14:56:18.495Z,47.80
2023-02-11T14:58:49.470Z,47.70
2023-02-11T15:01:31.840Z,47.70
2023-02-11T15:04:00.584Z,47.70
2023-02-11T15:06:39.212Z,48.40
2023-02-11T15:09:18.261Z,47.70
2023-02-11T15:11:47.045Z,47.80
2023-02-11T15:14:24.474Z,47.70
2023-02-11T15:16:53.508Z,47.70
2023-02-11T15:19:26.721Z,47.80
2023-02-11T15:21:54.126Z,47.70
2023-02-11T15:24:25.653Z,47.80
2023-02-11T15:27:16.311Z,47.70
2023-02-11T15:29:46.867Z,47.60
2023-02-11T15:32:16.912Z,47.70
2023-02-11T15:34:45.714Z,47.60
2023-02-11T15:37:15.052Z,47.60
2023-02-11T15:39:42.172Z,47.70
2023-02-11T15:42:17.955Z,47.70
2023-02-11T15:44:45.051Z,47.70
2023-02-11T15:47:20.720Z,47.70
2023-02-11T15:49:48.307Z,48.40
2023-02-11T15:52:22.319Z,47.80
2023-02-11T15:54:49.223Z,48.00
2023-02-11T15:57:17.740Z,48.10
2023-02-11T15:59:52.506Z,48.20
2023-02-11T16:02:19.133Z,48.30
2023-02-11T16:04:56.134Z,48.40
2023-02-11T16:07:45.204Z,48.50
2023-02-11T16:10:22.673Z,48.50
2023-02-11T16:13:07.127Z,48.50
2023-02-11T16:15:33.876Z,48.50
2023-02-11T16:18:12.389Z,48.60
2023-02-11T16:20:39.488Z,48.60
2023-02-11T16:23:07.405Z,48.50
2023-02-11T16:25:37.814Z,48.50
2023-02-11T16:28:05.422Z,48.50
2023-02-11T16:30:37.522Z,48.50
2023-02-11T16:33:05.498Z,48.40
2023-02-11T16:35:32.661Z,48.50
2023-02-11T16:37:59.386Z,48.50
2023-02-11T16:40:26.146Z,48.60
2023-02-11T16:42:53.506Z,48.60
2023-02-11T16:45:20.510Z,48.60
2023-02-11T16:47:47.441Z,48.60
2023-02-11T16:50:22.570Z,48.70
2023-02-11T16:52:49.538Z,48.70
2023-02-11T16:55:16.310Z,48.70
2023-02-11T16:57:42.995Z,48.80
2023-02-11T17:00:10.530Z,48.80
2023-02-11T17:02:37.752Z,48.80
2023-02-11T17:05:07.357Z,48.80
2023-02-11T17:07:34.112Z,48.80
2023-02-11T17:10:01.030Z,48.80
2023-02-11T17:12:27.726Z,48.80
2023-02-11T17:14:54.682Z,48.80
2023-02-11T17:17:23.623Z,48.80
2023-02-11T17:19:51.102Z,48.80
2023-02-11T17:22:18.632Z,48.90
2023-02-11T17:24:45.427Z,48.90
2023-02-11T17:27:12.524Z,48.90
2023-02-11T17:29:39.236Z,48.80
2023-02-11T17:32:06.091Z,48.90
2023-02-11T17:34:32.816Z,48.90
2023-02-11T17:37:00.180Z,48.90
2023-02-11T17:39:27.572Z,48.90
2023-02-11T17:41:55.149Z,49.00
2023-02-11T17:44:21.863Z,48.90
2023-02-11T17:46:48.652Z,48.90
2023-02-11T17:49:17.022Z,48.90
2023-02-11T17:51:43.771Z,48.90
2023-02-11T17:54:13.746Z,49.00
2023-02-11T17:56:41.101Z,49.00
2023-02-11T17:59:09.190Z,48.90
2023-02-11T18:01:37.233Z,48.90
2023-02-11T18:04:06.341Z,48.90
2023-02-11T18:06:33.826Z,48.90
2023-02-11T18:09:02.306Z,48.90
2023-02-11T18:11:32.226Z,48.90
2023-02-11T18:13:59.968Z,48.90
2023-02-11T18:16:28.937Z,48.90
2023-02-11T18:18:57.006Z,48.90
2023-02-11T18:21:24.582Z,48.90
2023-02-11T18:23:51.666Z,48.90
2023-02-11T18:26:20.137Z,48.80
2023-02-11T18:28:47.036Z,48.80
2023-02-11T18:31:14.390Z,48.80
2023-02-11T18:33:42.044Z,48.80
2023-02-11T18:36:11.698Z,48.80
2023-02-11T18:38:38.600Z,48.90
2023-02-11T18:41:05.728Z,48.80
2023-02-11T18:43:33.734Z,48.80
2023-02-11T18:46:02.104Z,49.50
2023-02-11T18:48:29.664Z,48.80
2023-02-11T18:50:56.408Z,48.70
2023-02-11T18:53:24.481Z,48.90
2023-02-11T18:55:52.660Z,48.90
2023-02-11T18:58:21.285Z,48.90
2023-02-11T19:00:48.652Z,48.90
2023-02-11T19:03:15.758Z,49.00
2023-02-11T19:05:47.335Z,49.00
2023-02-11T19:08:14.600Z,48.90
2023-02-11T19:10:42.796Z,48.90
2023-02-11T19:13:10.036Z,48.90
2023-02-11T19:15:44.672Z,48.80
2023-02-11T19:18:15.570Z,48.90
2023-02-11T19:20:44.769Z,48.90
2023-02-11T19:23:11.595Z,48.90
2023-02-11T19:25:45.508Z,48.90
2023-02-11T19:28:13.038Z,48.90
2023-02-11T19:30:39.963Z,48.90
2023-02-11T19:33:09.728Z,48.80
2023-02-11T19:35:36.892Z,48.80
2023-02-11T19:38:06.428Z,48.80
2023-02-11T19:40:33.308Z,48.80
2023-02-11T19:43:00.069Z,48.80
2023-02-11T19:45:27.050Z,48.80
2023-02-11T19:47:57.407Z,48.80
2023-02-11T19:50:24.670Z,49.50
2023-02-11T19:52:51.366Z,48.80
2023-02-11T19:55:18.179Z,48.80
2023-02-11T19:57:45.005Z,48.90
2023-02-11T20:00:12.225Z,48.80
2023-02-11T20:02:40.520Z,48.90
2023-02-11T20:05:07.720Z,49.40
2023-02-11T20:07:34.869Z,48.80
2023-02-11T20:10:01.690Z,48.80
2023-02-11T20:12:28.467Z,48.80
2023-02-11T20:14:55.150Z,48.80
2023-02-11T20:17:21.883Z,48.80
2023-02-11T20:19:48.614Z,48.80
2023-02-11T20:22:15.317Z,48.80
2023-02-11T20:24:42.038Z,48.80
2023-02-11T20:27:11.332Z,48.80
2023-02-11T20:29:38.533Z,48.90
2023-02-11T20:32:06.613Z,48.70
2023-02-11T20:34:33.622Z,49.00
2023-02-11T20:37:00.586Z,49.10
2023-02-11T20:39:28.134Z,49.00
2023-02-11T20:41:54.955Z,49.00
2023-02-11T20:44:22.274Z,49.00
2023-02-11T20:46:49.649Z,49.00
2023-02-11T20:49:19.820Z,49.00
2023-02-11T20:51:47.103Z,49.00
2023-02-11T20:54:19.465Z,48.90
2023-02-11T20:56:48.120Z,49.00
2023-02-11T20:59:16.660Z,49.00
2023-02-11T21:01:47.892Z,48.90
2023-02-11T21:04:17.423Z,49.50
2023-02-11T21:06:47.362Z,48.80
2023-02-11T21:09:16.810Z,48.80
2023-02-11T21:11:43.552Z,48.80
2023-02-11T21:14:11.040Z,48.80
2023-02-11T21:16:37.885Z,48.80
2023-02-11T21:19:05.367Z,48.80
2023-02-11T21:21:32.260Z,48.80
2023-02-11T21:23:59.293Z,48.80
2023-02-11T21:26:26.858Z,48.80
2023-02-11T21:28:55.054Z,48.80
2023-02-11T21:31:32.787Z,48.80
2023-02-11T21:34:00.052Z,48.80
2023-02-11T21:36:28.532Z,48.80
2023-02-11T21:38:55.234Z,48.80
2023-02-11T21:41:22.614Z,48.80
2023-02-11T21:43:50.020Z,48.80
2023-02-11T21:46:18.102Z,48.80
2023-02-11T21:48:45.022Z,48.80
2023-02-11T21:51:15.462Z,48.80
2023-02-11T21:53:42.175Z,48.80
2023-02-11T21:56:14.806Z,48.80
2023-02-11T21:58:41.883Z,48.80
2023-02-11T22:01:12.736Z,48.80
2023-02-11T22:03:39.640Z,48.70
2023-02-11T22:06:15.052Z,48.80
2023-02-11T22:08:41.993Z,48.80
2023-02-11T22:11:10.954Z,48.70
2023-02-11T22:13:37.729Z,48.80
2023-02-11T22:16:07.148Z,48.80
2023-02-11T22:18:34.228Z,48.80
2023-02-11T22:21:06.306Z,48.80
2023-02-11T22:23:33.121Z,48.80
2023-02-11T22:26:04.576Z,48.80
2023-02-11T22:28:31.353Z,48.80
2023-02-11T22:30:58.827Z,48.80
2023-02-11T22:33:26.830Z,48.80
2023-02-11T22:36:00.360Z,48.90
2023-02-11T22:38:31.599Z,48.90
2023-02-11T22:40:59.621Z,48.90
2023-02-11T22:43:27.584Z,48.80
2023-02-11T22:45:56.415Z,48.80
2023-02-11T22:48:23.668Z,48.80
2023-02-11T22:50:50.417Z,48.80
2023-02-11T22:53:17.120Z,48.80
2023-02-11T22:55:43.885Z,48.80
2023-02-11T22:58:10.993Z,48.80
2023-02-11T23:00:39.790Z,48.80
2023-02-11T23:03:08.555Z,48.80
2023-02-11T23:05:42.667Z,48.80
2023-02-11T23:08:10.950Z,48.80
2023-02-11T23:10:39.191Z,48.80
2023-02-11T23:13:07.008Z,48.80
2023-02-11T23:15:34.216Z,48.80
2023-02-11T23:18:00.964Z,48.80
2023-02-11T23:20:27.745Z,48.80
2023-02-11T23:22:54.489Z,48.80
2023-02-11T23:25:21.366Z,48.80
2023-02-11T23:27:48.085Z,48.70
2023-02-11T23:30:14.952Z,48.80
2023-02-11T23:32:41.721Z,48.70
2023-02-11T23:35:08.592Z,48.70
2023-02-11T23:37:35.295Z,48.70
2023-02-11T23:40:02.074Z,48.70
2023-02-11T23:42:29.178Z,48.70
2023-02-11T23:44:55.891Z,48.70
2023-02-11T23:47:22.670Z,48.70
2023-02-11T23:49:49.372Z,48.80
2023-02-11T23:52:16.181Z,48.70
2023-02-11T23:54:43.374Z,48.70
2023-02-11T23:57:10.133Z,49.30
2023-02-11T23:59:36.924Z,48.70
